03132-Slip⇒13132-Slip/Patna - Giridih Slip
پٹنہ - گیریڈیھ سلیپ     पटना - गिरिडीह स्लिप

Time-Table CHANGES effective Aug 15, 2018
Comparison of Old and New Time-Tables

Time-Table has Changed. Show Changes
Departure Time Changed. Slowed down by: 25m.


OLD TIME-TABLE

Travel Time: 11h 10m    34 halts    Distance: 288 km    Avg Speed: 26 km/hr
Type: Mail/Express
Zone: ER/Eastern
Departs @ 17:10
Platform# ???
SMTWTFS
Patna Junction/PNBE 
Arrives @ 04:20 +1 night
Platform# ???
SMTWTFS
Giridih/GRD 

Old TT effective UNTIL Jun 30, 2019.

34 halts. 75 intermediate Stations between Patna Junction and Giridih

#TrkCodeStation NameArrivesDepartsHaltPFDay#KmSpeedElevZoneAddress
1|--|PNBEPatna Junction»  17:10 16:45--10.015 ECRPatna 800001, Bihar
2|--|RJPBRajendra Nagar Terminal (Patna)  17:20 16:5517:22 16:572m--12.66355mECRPatna- 800016, Bihar
3|--|GZHGulzarbagh  17:26 17:0217:28 17:042m--16.83055mECRPincode-800007, Bihar
4|--|PNCPatna Saheb  17:34 17:1117:36 17:132m--19.85358mECRPatna 800008, Bihar
5|--|BKGBanka Ghat  17:43 17:2117:45 17:232m--116.05056mECRPatna, Bihar
6|--|FUTFatuha Junction  17:52 17:3117:54 17:332m--121.863 ECRPin - 803201, Bihar
7|--|KOOKhusropur  18:02 17:4218:04 17:442m--130.244 ECRPatna, Bihar
8|--|KWOKarauta  18:12 17:5218:14 17:542m--136.125 ECR803202, Bihar
9|--|TKBGTeka Bigha Halt  18:25 18:0518:26 18:061m--140.639 ECR803202, Bihar
10|--|BKPBakhtiyarpur Junction  18:33 18:2518:35 18:272m--145.190 ECRPin - 803212, Bihar
11|--|ATLAthmal Gola  18:41 18:3418:43 18:362m--154.168 ECRPincode - 803211, Bihar
12|--|BARHBarh  18:51 18:4518:53 18:472m--163.268 ECRPin - 803213, Bihar
13|--|PHKPunarakh  19:02 18:5719:04 18:592m--173.423 ECRPin - 803221, Bihar
14|--|MMKBMemrakhabad  19:11 19:0419:12 19:051m--176.131 ECRPin - 803221, Bihar
15|--|KNHPKanhaipur  19:16 19:0919:17 19:101m--178.241 ECRPin - 803221, Bihar
16|--|MORMor  19:22 19:1419:23 19:151m--181.663 ECRMor, Bihar
17|--|MKAMokama  19:30 19:2519:32 19:272m--188.920 ECRPincode - 803302, Bihar
18|--|HTZHathidah Junction  19:56 19:3919:57 19:401m--197.04150mECRPin - 803301, Bihar
19|--|RDUMRampur Dumra Junction  20:03 19:4620:04 19:471m--1101.156 ECRPin - 803301, Bihar
20|--|BRYABarhiya  20:10 19:5520:12 19:572m--1106.743 ECRPin - 811302, Bihar
21|--|DMRXDumri Halt  20:18 20:0220:19 20:031m--1111.044 ECRPin:811302, Bihar
22|--|MKBMankatha  20:26 20:1120:28 20:122 1m--1116.123 ECRNational Highway 80, Bihar
23|--|LKRLuckeesarai Junction  20:43 20:1920:45 20:212m--1121.84 ECRLakhisarai, Bihar
24|--|KIULKiul Junction  21:06 20:3021:08 20:322m--1123.153 ECRPhone no. 06346-232028 ; Dist. Lakhisarai, Bihar
25|--|BSQPBansipur  21:16 20:4021:17 20:411m--1130.155 ECRDist - Lakhisarai, Bihar
26|--|MNPMananpur  21:24 20:5321:25 20:551 2m--1136.549 ECRMananpur ; Dist - Lakhisarai ; Pin: 811310, Bihar
27|--|BFMBhalui  21:31 21:0121:32 21:021m--1141.460 ECR811310, Bihar
28|--|JMUJamui  21:41 21:2321:43 21:252m--1150.580 ECRPin - 811313, Bihar
29|--|GHRGidhaur  21:54 21:4921:55 21:511 2m--1165.118 ECR811305, Bihar
30|--|JAJJhajha  22:3322:385m--1176.670 ECRJamui, Bihar
31|--|STLSimultala  22:5422:551m--1195.266 ERSimultala Distt: Jamui, Bihar
32|--|JSMEJasidih Junction  23:1823:235m--1220.625 ERDeoghar-814142, Jharkhand
33|--|MDPMadhupur Junction00:32 00:2003:20168 180m--2249.638254mER06432-224478, Jharkhand
34|--|JGDJagadishpur  03:4003:411m--2262.343304mERPin - 814114, Jharkhand
35|--|MMDMaheshmunda Junction  04:0104:021m--2276.836 ERPin - 815312, Jharkhand
36|--|GRDGiridih•  04:20--2287.5-299mERPin - 815301, Jharkhand


NEW TIME-TABLE

This is the Shortest Route between Patna Jn and Giridih.
Travel Time: 11h 35m    34 halts    Distance: 288 km    Avg Speed: 25 km/hr
Max Permissible Speed: 110 km/hr between JAJ/Jhajha and MDP/Madhupur Junction
Type: Mail/Express
Rake Zone: ER/Eastern
Departs @ 16:45
Platform# 5
SMTWTFS
PNBE/Patna Jn 
Arrives @ 04:20 +1 night
Platform# 1
SMTWTFS
GRD/Giridih 

NEW TT effective Jun 30, 2019.

34 halts. 78 intermediate Stations between Patna Junction and Giridih

#TrkCodeStation NameArrivesDepartsHaltPFDay#KmSpeedElevZoneAddress
1/==/PNBEPatna Junction»  17:10 16:45510.015 ECRPatna 800001, Bihar
2/==/RJPBRajendra Nagar Terminal (Patna)  17:20 16:5517:22 16:572m412.65155mECRPatna- 800016, Bihar
3/==/GZHGulzarbagh  17:26 17:0217:28 17:042m116.82655mECRPincode-800007, Bihar
4/==/PNCPatna Saheb  17:34 17:1117:36 17:132m119.84658mECRPatna 800008, Bihar
5/==/BKGBanka Ghat  17:43 17:2117:45 17:232m1116.04356mECRPatna, Bihar
6/==/FUTFatuha Junction  17:52 17:3117:54 17:332m2121.858 ECRPin - 803201, Bihar
7/==/KOOKhusropur  18:02 17:4218:04 17:442m1130.544 ECRPatna, Bihar
8/==/KWOKarauta  18:12 17:5218:14 17:542m1136.325 ECR803202, Bihar
9/==/TKBGTeka Bigha Halt  18:25 18:0518:26 18:061m0140.814 ECR803202, Bihar
10/==/BKPBakhtiyarpur Junction  18:33 18:2518:35 18:272m1145.377 ECRPin - 803212, Bihar
11/==/ATLAthmal Gola  18:41 18:3418:43 18:362m1154.360 ECRPincode - 803211, Bihar
12/==/BARHBarh  18:51 18:4518:53 18:472m1163.461 ECRPin - 803213, Bihar
13/==/PHKPunarakh  19:02 18:5719:04 18:592m0173.633 ECRPin - 803221, Bihar
14/==/MMKBMemrakhabad  19:11 19:0419:12 19:051m0176.435 ECRPin - 803221, Bihar
15/==/KNHPKanhaipur  19:16 19:0919:17 19:101m0178.747 ECRPin - 803221, Bihar
16/==/MORMor  19:22 19:1419:23 19:151m0181.844 ECRMor, Bihar
17/==/MKAMokama  19:30 19:2519:32 19:272m1189.240 ECRPincode - 803302, Bihar
18/==/HTZHathidah Junction  19:56 19:3919:57 19:401m1197.24150mECRPin - 803301, Bihar
19/==/RDUMRampur Dumra Junction  20:03 19:4620:04 19:471m11101.342 ECRPin - 803301, Bihar
20/==/BRYABarhiya  20:10 19:5520:12 19:572m11106.952 ECRPin - 811302, Bihar
21/==/DMRXDumri Halt  20:18 20:0220:19 20:031m11111.238 ECRPin:811302, Bihar
22/==/MKBMankatha  20:26 20:1120:28 20:122 1m11116.349 ECRNational Highway 80, Bihar
23/==/LKRLuckeesarai Junction  20:43 20:1920:45 20:212m11122.18 ECRLakhisarai, Bihar
24/==/KIULKiul Junction  21:06 20:3021:08 20:322m41123.353 ECRPhone no. 06346-232028 ; Dist. Lakhisarai, Bihar
25/==/BSQPBansipur  21:16 20:4021:17 20:411m01130.432 ECRDist - Lakhisarai, Bihar
26/==/MNPMananpur  21:24 20:5321:25 20:551 2m11136.849 ECRMananpur ; Dist - Lakhisarai ; Pin: 811310, Bihar
27/==/BFMBhalui  21:31 21:0121:32 21:021m01141.726 ECR811310, Bihar
28/==/JMUJamui  21:41 21:2321:43 21:252m21150.737 ECRPin - 811313, Bihar
29/==/GHRGidhaur  21:54 21:4921:55 21:511 2m01165.316 ECR811305, Bihar
30/==/JAJJhajha  22:3322:385m01176.870 ECRJamui, Bihar
31/==/STLSimultala  22:5422:551m--1195.466 ERSimultala Distt: Jamui, Bihar
32/==/JSMEJasidih Junction  23:1823:235m01220.831 ERDeoghar-814142, Jharkhand
33/==/MDPMadhupur Junction↵¶00:32 00:2003:20168 180m--2249.838254mER06432-224478, Jharkhand
34/--/JGDJagadishpur  03:4003:411m02262.543304mERPin - 814114, Jharkhand
35/--/MMDMaheshmunda Junction  04:0104:021m02277.036 ERPin - 815312, Jharkhand
36/--/GRDGiridih•  04:2002287.7-299mERPin - 815301, Jharkhand
Go to Full Mobile site